sensor_id;sensor_type;location;lat;lon;timestamp;P1;durP1;ratioP1;P2;durP2;ratioP2
6941;SDS011;3510;43.200;27.920;2022-12-18T00:02:19;2.22;;;2.13;;
6941;SDS011;3510;43.200;27.920;2022-12-18T00:04:47;2.50;;;2.40;;
6941;SDS011;3510;43.200;27.920;2022-12-18T00:07:14;2.53;;;2.33;;
6941;SDS011;3510;43.200;27.920;2022-12-18T00:09:41;2.05;;;1.95;;
6941;SDS011;3510;43.200;27.920;2022-12-18T00:12:07;2.33;;;2.22;;
6941;SDS011;3510;43.200;27.920;2022-12-18T00:14:34;2.05;;;1.92;;
6941;SDS011;3510;43.200;27.920;2022-12-18T00:17:03;2.17;;;2.08;;
6941;SDS011;3510;43.200;27.920;2022-12-18T00:19:30;2.28;;;2.17;;
6941;SDS011;3510;43.200;27.920;2022-12-18T00:21:57;1.75;;;1.65;;
6941;SDS011;3510;43.200;27.920;2022-12-18T00:24:24;2.20;;;2.10;;
6941;SDS011;3510;43.200;27.920;2022-12-18T00:26:51;3.40;;;2.30;;
6941;SDS011;3510;43.200;27.920;2022-12-18T00:29:18;2.20;;;2.03;;
6941;SDS011;3510;43.200;27.920;2022-12-18T00:31:45;2.38;;;2.28;;
6941;SDS011;3510;43.200;27.920;2022-12-18T00:34:13;2.15;;;2.05;;
6941;SDS011;3510;43.200;27.920;2022-12-18T00:36:41;2.10;;;2.00;;
6941;SDS011;3510;43.200;27.920;2022-12-18T00:39:09;2.43;;;2.23;;
6941;SDS011;3510;43.200;27.920;2022-12-18T00:41:37;2.20;;;2.10;;
6941;SDS011;3510;43.200;27.920;2022-12-18T00:44:22;2.28;;;2.17;;
6941;SDS011;3510;43.200;27.920;2022-12-18T00:46:49;2.30;;;2.20;;
6941;SDS011;3510;43.200;27.920;2022-12-18T00:49:17;2.30;;;2.10;;
6941;SDS011;3510;43.200;27.920;2022-12-18T00:51:45;2.38;;;2.25;;
6941;SDS011;3510;43.200;27.920;2022-12-18T00:54:12;2.30;;;2.20;;
6941;SDS011;3510;43.200;27.920;2022-12-18T00:56:40;3.17;;;2.55;;
6941;SDS011;3510;43.200;27.920;2022-12-18T00:59:07;2.93;;;2.73;;
6941;SDS011;3510;43.200;27.920;2022-12-18T01:01:34;2.53;;;2.33;;
6941;SDS011;3510;43.200;27.920;2022-12-18T01:04:01;2.47;;;2.37;;
6941;SDS011;3510;43.200;27.920;2022-12-18T01:06:30;2.40;;;2.30;;
6941;SDS011;3510;43.200;27.920;2022-12-18T01:08:57;2.65;;;2.45;;
6941;SDS011;3510;43.200;27.920;2022-12-18T01:11:24;2.72;;;2.55;;
6941;SDS011;3510;43.200;27.920;2022-12-18T01:13:52;2.38;;;2.28;;
6941;SDS011;3510;43.200;27.920;2022-12-18T01:16:19;2.85;;;2.65;;
6941;SDS011;3510;43.200;27.920;2022-12-18T01:18:47;2.87;;;2.67;;
6941;SDS011;3510;43.200;27.920;2022-12-18T01:21:17;2.70;;;2.50;;
6941;SDS011;3510;43.200;27.920;2022-12-18T01:23:45;2.63;;;2.47;;
6941;SDS011;3510;43.200;27.920;2022-12-18T01:26:13;2.30;;;2.20;;
6941;SDS011;3510;43.200;27.920;2022-12-18T01:28:41;2.70;;;2.50;;
6941;SDS011;3510;43.200;27.920;2022-12-18T01:31:13;2.50;;;2.30;;
6941;SDS011;3510;43.200;27.920;2022-12-18T01:33:42;2.40;;;2.20;;
6941;SDS011;3510;43.200;27.920;2022-12-18T01:36:14;2.73;;;2.60;;
6941;SDS011;3510;43.200;27.920;2022-12-18T01:38:42;2.55;;;2.42;;
6941;SDS011;3510;43.200;27.920;2022-12-18T01:41:11;3.08;;;2.47;;
6941;SDS011;3510;43.200;27.920;2022-12-18T01:43:42;2.45;;;2.25;;
6941;SDS011;3510;43.200;27.920;2022-12-18T01:46:11;2.30;;;2.20;;
6941;SDS011;3510;43.200;27.920;2022-12-18T01:48:38;3.20;;;2.38;;
6941;SDS011;3510;43.200;27.920;2022-12-18T01:51:06;2.60;;;2.50;;
6941;SDS011;3510;43.200;27.920;2022-12-18T01:53:36;2.65;;;2.50;;
6941;SDS011;3510;43.200;27.920;2022-12-18T01:56:04;2.60;;;2.50;;
6941;SDS011;3510;43.200;27.920;2022-12-18T01:58:35;2.88;;;2.67;;
6941;SDS011;3510;43.200;27.920;2022-12-18T02:01:06;2.65;;;2.47;;
6941;SDS011;3510;43.200;27.920;2022-12-18T02:03:33;3.00;;;2.80;;
6941;SDS011;3510;43.200;27.920;2022-12-18T02:06:01;2.70;;;2.50;;
6941;SDS011;3510;43.200;27.920;2022-12-18T02:08:36;2.63;;;2.42;;
6941;SDS011;3510;43.200;27.920;2022-12-18T02:11:10;2.38;;;2.28;;
6941;SDS011;3510;43.200;27.920;2022-12-18T02:13:46;2.53;;;2.38;;
6941;SDS011;3510;43.200;27.920;2022-12-18T02:16:26;2.50;;;2.10;;
6941;SDS011;3510;43.200;27.920;2022-12-18T02:19:03;3.78;;;2.38;;
6941;SDS011;3510;43.200;27.920;2022-12-18T02:21:47;2.75;;;2.55;;
6941;SDS011;3510;43.200;27.920;2022-12-18T02:24:24;2.55;;;2.40;;
6941;SDS011;3510;43.200;27.920;2022-12-18T02:27:02;2.50;;;2.30;;
6941;SDS011;3510;43.200;27.920;2022-12-18T02:29:33;2.85;;;2.20;;
6941;SDS011;3510;43.200;27.920;2022-12-18T02:32:05;2.92;;;2.72;;
6941;SDS011;3510;43.200;27.920;2022-12-18T02:34:36;2.20;;;2.10;;
6941;SDS011;3510;43.200;27.920;2022-12-18T02:37:06;2.15;;;2.00;;
6941;SDS011;3510;43.200;27.920;2022-12-18T02:39:37;2.30;;;2.20;;
6941;SDS011;3510;43.200;27.920;2022-12-18T02:42:08;2.60;;;2.40;;
6941;SDS011;3510;43.200;27.920;2022-12-18T02:44:41;2.22;;;2.13;;
6941;SDS011;3510;43.200;27.920;2022-12-18T02:47:09;2.53;;;2.37;;
6941;SDS011;3510;43.200;27.920;2022-12-18T02:49:40;2.50;;;2.30;;
6941;SDS011;3510;43.200;27.920;2022-12-18T02:52:17;2.33;;;2.22;;
6941;SDS011;3510;43.200;27.920;2022-12-18T02:54:56;2.53;;;2.33;;
6941;SDS011;3510;43.200;27.920;2022-12-18T02:57:34;2.50;;;2.30;;
6941;SDS011;3510;43.200;27.920;2022-12-18T03:00:06;3.00;;;2.80;;
6941;SDS011;3510;43.200;27.920;2022-12-18T03:02:37;2.90;;;2.70;;
6941;SDS011;3510;43.200;27.920;2022-12-18T03:05:13;2.85;;;2.65;;
6941;SDS011;3510;43.200;27.920;2022-12-18T03:07:44;2.33;;;2.22;;
6941;SDS011;3510;43.200;27.920;2022-12-18T03:10:19;2.90;;;2.70;;
6941;SDS011;3510;43.200;27.920;2022-12-18T03:12:53;3.10;;;2.90;;
6941;SDS011;3510;43.200;27.920;2022-12-18T03:15:26;3.50;;;3.20;;
6941;SDS011;3510;43.200;27.920;2022-12-18T03:17:59;3.25;;;3.05;;
6941;SDS011;3510;43.200;27.920;2022-12-18T03:20:29;3.00;;;2.80;;
6941;SDS011;3510;43.200;27.920;2022-12-18T03:22:59;3.55;;;3.28;;
6941;SDS011;3510;43.200;27.920;2022-12-18T03:25:32;3.10;;;2.90;;
6941;SDS011;3510;43.200;27.920;2022-12-18T03:28:03;3.00;;;2.80;;
6941;SDS011;3510;43.200;27.920;2022-12-18T03:30:34;2.65;;;2.47;;
6941;SDS011;3510;43.200;27.920;2022-12-18T03:33:07;3.28;;;3.08;;
6941;SDS011;3510;43.200;27.920;2022-12-18T03:35:37;2.78;;;2.58;;
6941;SDS011;3510;43.200;27.920;2022-12-18T03:38:07;3.22;;;3.03;;
6941;SDS011;3510;43.200;27.920;2022-12-18T03:40:38;3.33;;;3.13;;
6941;SDS011;3510;43.200;27.920;2022-12-18T03:43:14;3.28;;;3.08;;
6941;SDS011;3510;43.200;27.920;2022-12-18T03:45:47;3.67;;;3.40;;
6941;SDS011;3510;43.200;27.920;2022-12-18T03:48:20;4.68;;;3.20;;
6941;SDS011;3510;43.200;27.920;2022-12-18T03:50:56;3.30;;;3.00;;
6941;SDS011;3510;43.200;27.920;2022-12-18T03:53:28;3.13;;;2.93;;
6941;SDS011;3510;43.200;27.920;2022-12-18T03:56:03;2.67;;;2.50;;
6941;SDS011;3510;43.200;27.920;2022-12-18T03:58:32;3.03;;;2.80;;
6941;SDS011;3510;43.200;27.920;2022-12-18T04:01:03;2.80;;;2.60;;
6941;SDS011;3510;43.200;27.920;2022-12-18T04:03:38;3.10;;;2.90;;
6941;SDS011;3510;43.200;27.920;2022-12-18T04:06:06;3.17;;;2.90;;
6941;SDS011;3510;43.200;27.920;2022-12-18T04:08:34;3.10;;;2.90;;
6941;SDS011;3510;43.200;27.920;2022-12-18T04:11:02;3.00;;;2.80;;
6941;SDS011;3510;43.200;27.920;2022-12-18T04:13:30;3.03;;;2.83;;
6941;SDS011;3510;43.200;27.920;2022-12-18T04:16:01;3.30;;;3.10;;
6941;SDS011;3510;43.200;27.920;2022-12-18T04:18:29;3.23;;;3.03;;
6941;SDS011;3510;43.200;27.920;2022-12-18T04:20:56;3.30;;;3.10;;
6941;SDS011;3510;43.200;27.920;2022-12-18T04:23:23;3.77;;;3.47;;
6941;SDS011;3510;43.200;27.920;2022-12-18T04:25:50;3.40;;;3.20;;
6941;SDS011;3510;43.200;27.920;2022-12-18T04:28:17;3.95;;;3.65;;
6941;SDS011;3510;43.200;27.920;2022-12-18T04:30:45;3.35;;;3.15;;
6941;SDS011;3510;43.200;27.920;2022-12-18T04:33:12;3.30;;;3.10;;
6941;SDS011;3510;43.200;27.920;2022-12-18T04:35:40;3.25;;;3.05;;
6941;SDS011;3510;43.200;27.920;2022-12-18T04:38:08;3.58;;;3.28;;
6941;SDS011;3510;43.200;27.920;2022-12-18T04:40:36;3.53;;;3.30;;
6941;SDS011;3510;43.200;27.920;2022-12-18T04:43:03;3.92;;;3.63;;
6941;SDS011;3510;43.200;27.920;2022-12-18T04:45:30;4.30;;;4.00;;
6941;SDS011;3510;43.200;27.920;2022-12-18T04:47:59;4.20;;;3.90;;
6941;SDS011;3510;43.200;27.920;2022-12-18T04:50:27;7.05;;;4.72;;
6941;SDS011;3510;43.200;27.920;2022-12-18T04:52:54;5.70;;;5.20;;
6941;SDS011;3510;43.200;27.920;2022-12-18T04:55:21;6.20;;;4.22;;
6941;SDS011;3510;43.200;27.920;2022-12-18T04:57:48;5.07;;;4.63;;
6941;SDS011;3510;43.200;27.920;2022-12-18T05:00:15;6.43;;;5.70;;
6941;SDS011;3510;43.200;27.920;2022-12-18T05:02:42;5.47;;;4.97;;
6941;SDS011;3510;43.200;27.920;2022-12-18T05:05:11;6.73;;;6.13;;
6941;SDS011;3510;43.200;27.920;2022-12-18T05:07:37;6.75;;;6.22;;
6941;SDS011;3510;43.200;27.920;2022-12-18T05:10:05;6.15;;;5.55;;
6941;SDS011;3510;43.200;27.920;2022-12-18T05:12:32;7.38;;;5.75;;
6941;SDS011;3510;43.200;27.920;2022-12-18T05:15:19;5.43;;;4.82;;
6941;SDS011;3510;43.200;27.920;2022-12-18T05:17:46;5.93;;;5.32;;
6941;SDS011;3510;43.200;27.920;2022-12-18T05:20:14;5.82;;;5.25;;
6941;SDS011;3510;43.200;27.920;2022-12-18T05:22:43;5.10;;;4.67;;
6941;SDS011;3510;43.200;27.920;2022-12-18T05:25:10;6.55;;;5.95;;
6941;SDS011;3510;43.200;27.920;2022-12-18T05:27:37;7.35;;;6.07;;
6941;SDS011;3510;43.200;27.920;2022-12-18T05:30:04;6.55;;;5.70;;
6941;SDS011;3510;43.200;27.920;2022-12-18T05:32:32;7.30;;;6.50;;
6941;SDS011;3510;43.200;27.920;2022-12-18T05:34:59;7.78;;;6.95;;
6941;SDS011;3510;43.200;27.920;2022-12-18T05:37:27;7.88;;;7.15;;
6941;SDS011;3510;43.200;27.920;2022-12-18T05:39:54;8.10;;;7.30;;
6941;SDS011;3510;43.200;27.920;2022-12-18T05:42:21;9.13;;;7.65;;
6941;SDS011;3510;43.200;27.920;2022-12-18T05:44:48;7.70;;;6.88;;
6941;SDS011;3510;43.200;27.920;2022-12-18T05:47:15;8.20;;;6.60;;
6941;SDS011;3510;43.200;27.920;2022-12-18T05:49:42;10.03;;;8.20;;
6941;SDS011;3510;43.200;27.920;2022-12-18T05:52:09;9.87;;;8.40;;
6941;SDS011;3510;43.200;27.920;2022-12-18T05:54:38;10.82;;;9.05;;
6941;SDS011;3510;43.200;27.920;2022-12-18T05:57:05;9.27;;;8.35;;
6941;SDS011;3510;43.200;27.920;2022-12-18T05:59:32;14.20;;;10.80;;
6941;SDS011;3510;43.200;27.920;2022-12-18T06:01:59;12.23;;;9.85;;
6941;SDS011;3510;43.200;27.920;2022-12-18T06:04:26;14.30;;;9.35;;
6941;SDS011;3510;43.200;27.920;2022-12-18T06:06:53;24.13;;;15.43;;
6941;SDS011;3510;43.200;27.920;2022-12-18T06:09:20;26.85;;;20.58;;
6941;SDS011;3510;43.200;27.920;2022-12-18T06:11:49;10.93;;;8.95;;
6941;SDS011;3510;43.200;27.920;2022-12-18T06:14:18;14.50;;;10.93;;
6941;SDS011;3510;43.200;27.920;2022-12-18T06:16:45;12.57;;;9.68;;
6941;SDS011;3510;43.200;27.920;2022-12-18T06:19:14;13.45;;;9.98;;
6941;SDS011;3510;43.200;27.920;2022-12-18T06:21:42;12.57;;;10.38;;
6941;SDS011;3510;43.200;27.920;2022-12-18T06:24:09;17.55;;;11.88;;
6941;SDS011;3510;43.200;27.920;2022-12-18T06:26:36;17.80;;;12.45;;
6941;SDS011;3510;43.200;27.920;2022-12-18T06:29:06;16.45;;;11.43;;
6941;SDS011;3510;43.200;27.920;2022-12-18T06:31:32;14.85;;;11.02;;
6941;SDS011;3510;43.200;27.920;2022-12-18T06:34:01;15.23;;;11.43;;
6941;SDS011;3510;43.200;27.920;2022-12-18T06:36:29;14.38;;;11.10;;
6941;SDS011;3510;43.200;27.920;2022-12-18T06:38:56;11.88;;;8.77;;
6941;SDS011;3510;43.200;27.920;2022-12-18T06:41:24;15.70;;;11.27;;
6941;SDS011;3510;43.200;27.920;2022-12-18T06:43:51;16.13;;;12.52;;
6941;SDS011;3510;43.200;27.920;2022-12-18T06:46:19;16.08;;;11.90;;
6941;SDS011;3510;43.200;27.920;2022-12-18T06:48:47;17.35;;;12.40;;
6941;SDS011;3510;43.200;27.920;2022-12-18T06:51:16;17.15;;;12.18;;
6941;SDS011;3510;43.200;27.920;2022-12-18T06:53:44;18.10;;;12.43;;
6941;SDS011;3510;43.200;27.920;2022-12-18T06:56:11;18.10;;;13.57;;
6941;SDS011;3510;43.200;27.920;2022-12-18T06:58:38;22.17;;;15.25;;
6941;SDS011;3510;43.200;27.920;2022-12-18T07:01:06;21.17;;;14.17;;
6941;SDS011;3510;43.200;27.920;2022-12-18T07:03:35;21.98;;;14.50;;
6941;SDS011;3510;43.200;27.920;2022-12-18T07:06:02;21.42;;;14.13;;
6941;SDS011;3510;43.200;27.920;2022-12-18T07:08:30;18.67;;;14.00;;
6941;SDS011;3510;43.200;27.920;2022-12-18T07:10:59;19.33;;;13.65;;
6941;SDS011;3510;43.200;27.920;2022-12-18T07:13:29;19.90;;;14.20;;
6941;SDS011;3510;43.200;27.920;2022-12-18T07:16:02;25.88;;;14.88;;
6941;SDS011;3510;43.200;27.920;2022-12-18T07:18:35;20.30;;;14.07;;
6941;SDS011;3510;43.200;27.920;2022-12-18T07:21:03;21.38;;;12.73;;
6941;SDS011;3510;43.200;27.920;2022-12-18T07:23:31;20.33;;;13.73;;
6941;SDS011;3510;43.200;27.920;2022-12-18T07:26:00;20.92;;;14.73;;
6941;SDS011;3510;43.200;27.920;2022-12-18T07:28:28;19.92;;;13.63;;
6941;SDS011;3510;43.200;27.920;2022-12-18T07:30:56;20.77;;;14.93;;
6941;SDS011;3510;43.200;27.920;2022-12-18T07:33:24;24.25;;;16.60;;
6941;SDS011;3510;43.200;27.920;2022-12-18T07:35:52;20.65;;;14.05;;
6941;SDS011;3510;43.200;27.920;2022-12-18T07:38:19;22.05;;;14.15;;
6941;SDS011;3510;43.200;27.920;2022-12-18T07:40:46;23.75;;;14.63;;
6941;SDS011;3510;43.200;27.920;2022-12-18T07:43:13;18.13;;;12.88;;
6941;SDS011;3510;43.200;27.920;2022-12-18T07:45:41;20.35;;;14.32;;
6941;SDS011;3510;43.200;27.920;2022-12-18T07:48:08;22.88;;;15.00;;
6941;SDS011;3510;43.200;27.920;2022-12-18T07:50:35;22.10;;;14.95;;
6941;SDS011;3510;43.200;27.920;2022-12-18T07:53:04;24.48;;;15.85;;
6941;SDS011;3510;43.200;27.920;2022-12-18T07:55:31;25.23;;;16.45;;
6941;SDS011;3510;43.200;27.920;2022-12-18T07:58:00;23.13;;;14.90;;
6941;SDS011;3510;43.200;27.920;2022-12-18T08:00:28;25.77;;;16.83;;
6941;SDS011;3510;43.200;27.920;2022-12-18T08:02:55;28.13;;;18.08;;
6941;SDS011;3510;43.200;27.920;2022-12-18T08:05:22;25.33;;;15.35;;
6941;SDS011;3510;43.200;27.920;2022-12-18T08:07:49;24.33;;;15.60;;
6941;SDS011;3510;43.200;27.920;2022-12-18T08:10:17;24.03;;;15.30;;
6941;SDS011;3510;43.200;27.920;2022-12-18T08:12:44;26.10;;;14.82;;
6941;SDS011;3510;43.200;27.920;2022-12-18T08:15:11;25.50;;;16.45;;
6941;SDS011;3510;43.200;27.920;2022-12-18T08:17:38;22.13;;;13.68;;
6941;SDS011;3510;43.200;27.920;2022-12-18T08:20:06;22.85;;;14.32;;
6941;SDS011;3510;43.200;27.920;2022-12-18T08:22:33;23.05;;;14.98;;
6941;SDS011;3510;43.200;27.920;2022-12-18T08:25:01;19.00;;;13.02;;
6941;SDS011;3510;43.200;27.920;2022-12-18T08:27:30;22.43;;;15.47;;
6941;SDS011;3510;43.200;27.920;2022-12-18T08:29:57;22.95;;;14.65;;
6941;SDS011;3510;43.200;27.920;2022-12-18T08:32:24;29.05;;;16.92;;
6941;SDS011;3510;43.200;27.920;2022-12-18T08:34:52;27.00;;;17.10;;
6941;SDS011;3510;43.200;27.920;2022-12-18T08:37:19;26.20;;;17.33;;
6941;SDS011;3510;43.200;27.920;2022-12-18T08:39:46;26.40;;;16.02;;
6941;SDS011;3510;43.200;27.920;2022-12-18T08:42:13;29.00;;;17.67;;
6941;SDS011;3510;43.200;27.920;2022-12-18T08:44:59;23.67;;;14.35;;
6941;SDS011;3510;43.200;27.920;2022-12-18T08:47:26;29.33;;;17.13;;
6941;SDS011;3510;43.200;27.920;2022-12-18T08:49:53;25.50;;;16.42;;
6941;SDS011;3510;43.200;27.920;2022-12-18T08:52:20;29.00;;;16.77;;
6941;SDS011;3510;43.200;27.920;2022-12-18T08:54:46;24.98;;;16.52;;
6941;SDS011;3510;43.200;27.920;2022-12-18T08:57:13;25.00;;;16.25;;
6941;SDS011;3510;43.200;27.920;2022-12-18T08:59:41;31.48;;;18.85;;
6941;SDS011;3510;43.200;27.920;2022-12-18T09:02:10;27.70;;;16.98;;
6941;SDS011;3510;43.200;27.920;2022-12-18T09:04:37;25.92;;;15.40;;
6941;SDS011;3510;43.200;27.920;2022-12-18T09:07:05;24.90;;;15.20;;
6941;SDS011;3510;43.200;27.920;2022-12-18T09:09:31;24.27;;;15.35;;
6941;SDS011;3510;43.200;27.920;2022-12-18T09:11:59;27.88;;;17.20;;
6941;SDS011;3510;43.200;27.920;2022-12-18T09:14:26;29.63;;;16.90;;
6941;SDS011;3510;43.200;27.920;2022-12-18T09:16:52;26.37;;;16.07;;
6941;SDS011;3510;43.200;27.920;2022-12-18T09:19:22;30.05;;;17.70;;
6941;SDS011;3510;43.200;27.920;2022-12-18T09:21:51;26.20;;;16.77;;
6941;SDS011;3510;43.200;27.920;2022-12-18T09:24:18;28.00;;;18.83;;
6941;SDS011;3510;43.200;27.920;2022-12-18T09:26:45;26.05;;;15.55;;
6941;SDS011;3510;43.200;27.920;2022-12-18T09:29:12;24.73;;;17.17;;
6941;SDS011;3510;43.200;27.920;2022-12-18T09:31:39;28.20;;;18.25;;
6941;SDS011;3510;43.200;27.920;2022-12-18T09:34:06;25.42;;;17.25;;
6941;SDS011;3510;43.200;27.920;2022-12-18T09:36:35;29.58;;;17.63;;
6941;SDS011;3510;43.200;27.920;2022-12-18T09:39:02;29.23;;;17.38;;
6941;SDS011;3510;43.200;27.920;2022-12-18T09:41:39;30.05;;;18.90;;
6941;SDS011;3510;43.200;27.920;2022-12-18T09:44:22;27.02;;;16.45;;
6941;SDS011;3510;43.200;27.920;2022-12-18T09:46:56;26.23;;;17.33;;
6941;SDS011;3510;43.200;27.920;2022-12-18T09:49:29;30.20;;;18.03;;
6941;SDS011;3510;43.200;27.920;2022-12-18T09:52:02;27.00;;;16.08;;
6941;SDS011;3510;43.200;27.920;2022-12-18T09:54:33;34.00;;;19.35;;
6941;SDS011;3510;43.200;27.920;2022-12-18T09:57:04;30.45;;;18.17;;
6941;SDS011;3510;43.200;27.920;2022-12-18T09:59:32;27.80;;;15.27;;
6941;SDS011;3510;43.200;27.920;2022-12-18T10:02:11;27.08;;;16.98;;
6941;SDS011;3510;43.200;27.920;2022-12-18T10:04:41;21.85;;;13.45;;
6941;SDS011;3510;43.200;27.920;2022-12-18T10:07:12;27.25;;;18.25;;
6941;SDS011;3510;43.200;27.920;2022-12-18T10:09:46;28.65;;;17.42;;
6941;SDS011;3510;43.200;27.920;2022-12-18T10:12:21;28.67;;;17.77;;
6941;SDS011;3510;43.200;27.920;2022-12-18T10:14:55;27.98;;;17.45;;
6941;SDS011;3510;43.200;27.920;2022-12-18T10:17:28;28.75;;;18.80;;
6941;SDS011;3510;43.200;27.920;2022-12-18T10:20:10;30.13;;;18.92;;
6941;SDS011;3510;43.200;27.920;2022-12-18T10:22:50;29.60;;;19.50;;
6941;SDS011;3510;43.200;27.920;2022-12-18T10:25:22;29.20;;;19.15;;
6941;SDS011;3510;43.200;27.920;2022-12-18T10:27:54;28.80;;;18.65;;
6941;SDS011;3510;43.200;27.920;2022-12-18T10:30:24;29.50;;;19.05;;
6941;SDS011;3510;43.200;27.920;2022-12-18T10:32:52;28.77;;;18.02;;
6941;SDS011;3510;43.200;27.920;2022-12-18T10:35:20;31.58;;;18.88;;
6941;SDS011;3510;43.200;27.920;2022-12-18T10:38:04;28.98;;;18.27;;
6941;SDS011;3510;43.200;27.920;2022-12-18T10:40:34;28.13;;;17.98;;
6941;SDS011;3510;43.200;27.920;2022-12-18T10:43:16;31.20;;;19.15;;
6941;SDS011;3510;43.200;27.920;2022-12-18T10:48:49;27.53;;;17.87;;
6941;SDS011;3510;43.200;27.920;2022-12-18T10:51:23;30.23;;;18.15;;
6941;SDS011;3510;43.200;27.920;2022-12-18T10:53:57;28.48;;;17.60;;
6941;SDS011;3510;43.200;27.920;2022-12-18T10:56:28;25.48;;;16.02;;
6941;SDS011;3510;43.200;27.920;2022-12-18T10:58:58;26.80;;;17.35;;
6941;SDS011;3510;43.200;27.920;2022-12-18T11:01:26;25.88;;;17.90;;
6941;SDS011;3510;43.200;27.920;2022-12-18T11:04:01;27.02;;;17.42;;
6941;SDS011;3510;43.200;27.920;2022-12-18T11:06:34;27.33;;;19.02;;
6941;SDS011;3510;43.200;27.920;2022-12-18T11:09:21;26.55;;;17.10;;
6941;SDS011;3510;43.200;27.920;2022-12-18T11:11:49;30.60;;;19.03;;
6941;SDS011;3510;43.200;27.920;2022-12-18T11:14:20;28.50;;;18.20;;
6941;SDS011;3510;43.200;27.920;2022-12-18T11:16:49;31.45;;;20.13;;
6941;SDS011;3510;43.200;27.920;2022-12-18T11:19:23;26.70;;;17.65;;
6941;SDS011;3510;43.200;27.920;2022-12-18T11:21:57;27.90;;;17.67;;
6941;SDS011;3510;43.200;27.920;2022-12-18T11:24:28;28.52;;;18.73;;
6941;SDS011;3510;43.200;27.920;2022-12-18T11:26:57;29.85;;;19.35;;
6941;SDS011;3510;43.200;27.920;2022-12-18T11:29:28;34.85;;;19.40;;
6941;SDS011;3510;43.200;27.920;2022-12-18T11:32:20;31.02;;;19.30;;
6941;SDS011;3510;43.200;27.920;2022-12-18T11:35:03;29.70;;;19.52;;
6941;SDS011;3510;43.200;27.920;2022-12-18T11:37:38;28.95;;;18.38;;
6941;SDS011;3510;43.200;27.920;2022-12-18T11:40:11;33.47;;;19.90;;
6941;SDS011;3510;43.200;27.920;2022-12-18T11:42:44;34.28;;;20.45;;
6941;SDS011;3510;43.200;27.920;2022-12-18T11:45:24;35.63;;;21.20;;
6941;SDS011;3510;43.200;27.920;2022-12-18T11:47:55;32.92;;;20.05;;
6941;SDS011;3510;43.200;27.920;2022-12-18T11:50:26;38.33;;;22.20;;
6941;SDS011;3510;43.200;27.920;2022-12-18T11:52:58;36.60;;;21.95;;
6941;SDS011;3510;43.200;27.920;2022-12-18T11:55:30;33.85;;;20.20;;
6941;SDS011;3510;43.200;27.920;2022-12-18T11:58:04;33.25;;;20.25;;
6941;SDS011;3510;43.200;27.920;2022-12-18T12:00:40;32.23;;;20.03;;
6941;SDS011;3510;43.200;27.920;2022-12-18T12:03:24;33.38;;;18.63;;
6941;SDS011;3510;43.200;27.920;2022-12-18T12:06:08;33.78;;;20.38;;
6941;SDS011;3510;43.200;27.920;2022-12-18T12:08:45;29.50;;;18.63;;
6941;SDS011;3510;43.200;27.920;2022-12-18T12:11:26;24.27;;;16.87;;
6941;SDS011;3510;43.200;27.920;2022-12-18T12:16:55;26.55;;;15.73;;
6941;SDS011;3510;43.200;27.920;2022-12-18T12:19:30;22.92;;;15.55;;
6941;SDS011;3510;43.200;27.920;2022-12-18T12:22:04;25.60;;;17.25;;
6941;SDS011;3510;43.200;27.920;2022-12-18T12:24:45;23.35;;;15.10;;
6941;SDS011;3510;43.200;27.920;2022-12-18T12:27:22;19.15;;;14.50;;
6941;SDS011;3510;43.200;27.920;2022-12-18T12:30:03;21.00;;;13.55;;
6941;SDS011;3510;43.200;27.920;2022-12-18T12:32:44;20.42;;;13.45;;
6941;SDS011;3510;43.200;27.920;2022-12-18T12:35:23;20.83;;;14.48;;
6941;SDS011;3510;43.200;27.920;2022-12-18T12:37:58;19.20;;;13.23;;
6941;SDS011;3510;43.200;27.920;2022-12-18T12:40:34;14.80;;;11.52;;
6941;SDS011;3510;43.200;27.920;2022-12-18T12:43:12;16.02;;;12.27;;
6941;SDS011;3510;43.200;27.920;2022-12-18T12:45:50;12.43;;;10.18;;
6941;SDS011;3510;43.200;27.920;2022-12-18T12:48:24;11.57;;;9.38;;
6941;SDS011;3510;43.200;27.920;2022-12-18T12:51:00;14.82;;;11.18;;
6941;SDS011;3510;43.200;27.920;2022-12-18T12:53:30;10.93;;;9.73;;
6941;SDS011;3510;43.200;27.920;2022-12-18T12:56:02;14.33;;;10.13;;
6941;SDS011;3510;43.200;27.920;2022-12-18T12:58:33;7.90;;;7.13;;
6941;SDS011;3510;43.200;27.920;2022-12-18T13:01:09;6.60;;;6.00;;
6941;SDS011;3510;43.200;27.920;2022-12-18T13:03:43;6.30;;;5.90;;
6941;SDS011;3510;43.200;27.920;2022-12-18T13:06:16;6.75;;;6.15;;
6941;SDS011;3510;43.200;27.920;2022-12-18T13:08:54;6.75;;;6.15;;
6941;SDS011;3510;43.200;27.920;2022-12-18T13:11:28;6.28;;;5.68;;
6941;SDS011;3510;43.200;27.920;2022-12-18T13:14:21;6.83;;;6.33;;
6941;SDS011;3510;43.200;27.920;2022-12-18T13:20:09;7.07;;;6.50;;
6941;SDS011;3510;43.200;27.920;2022-12-18T13:22:38;6.72;;;6.13;;
6941;SDS011;3510;43.200;27.920;2022-12-18T13:28:05;7.43;;;6.40;;
6941;SDS011;3510;43.200;27.920;2022-12-18T13:30:43;7.80;;;7.10;;
6941;SDS011;3510;43.200;27.920;2022-12-18T13:36:23;10.43;;;6.82;;
6941;SDS011;3510;43.200;27.920;2022-12-18T13:39:09;6.90;;;6.30;;
6941;SDS011;3510;43.200;27.920;2022-12-18T13:41:38;6.87;;;6.27;;
6941;SDS011;3510;43.200;27.920;2022-12-18T13:44:11;9.87;;;6.13;;
6941;SDS011;3510;43.200;27.920;2022-12-18T13:46:43;7.10;;;6.40;;
6941;SDS011;3510;43.200;27.920;2022-12-18T13:49:18;7.72;;;7.03;;
6941;SDS011;3510;43.200;27.920;2022-12-18T13:51:50;9.23;;;7.22;;
6941;SDS011;3510;43.200;27.920;2022-12-18T13:54:20;7.20;;;6.60;;
6941;SDS011;3510;43.200;27.920;2022-12-18T13:56:51;9.77;;;7.18;;
6941;SDS011;3510;43.200;27.920;2022-12-18T13:59:19;9.07;;;6.75;;
6941;SDS011;3510;43.200;27.920;2022-12-18T14:01:50;9.10;;;7.05;;
6941;SDS011;3510;43.200;27.920;2022-12-18T14:04:23;7.90;;;7.10;;
6941;SDS011;3510;43.200;27.920;2022-12-18T14:06:52;8.07;;;7.28;;
6941;SDS011;3510;43.200;27.920;2022-12-18T14:09:23;9.55;;;6.97;;
6941;SDS011;3510;43.200;27.920;2022-12-18T14:11:52;8.45;;;6.90;;
6941;SDS011;3510;43.200;27.920;2022-12-18T14:14:43;9.13;;;7.40;;
6941;SDS011;3510;43.200;27.920;2022-12-18T14:17:13;7.80;;;7.00;;
6941;SDS011;3510;43.200;27.920;2022-12-18T14:19:42;8.40;;;6.63;;
6941;SDS011;3510;43.200;27.920;2022-12-18T14:22:15;7.17;;;6.57;;
6941;SDS011;3510;43.200;27.920;2022-12-18T14:24:44;6.90;;;6.10;;
6941;SDS011;3510;43.200;27.920;2022-12-18T14:27:21;7.35;;;6.65;;
6941;SDS011;3510;43.200;27.920;2022-12-18T14:29:49;8.80;;;7.93;;
6941;SDS011;3510;43.200;27.920;2022-12-18T14:32:19;8.18;;;7.35;;
6941;SDS011;3510;43.200;27.920;2022-12-18T14:34:48;8.45;;;7.65;;
6941;SDS011;3510;43.200;27.920;2022-12-18T14:37:20;9.57;;;8.43;;
6941;SDS011;3510;43.200;27.920;2022-12-18T14:39:52;8.43;;;7.60;;
6941;SDS011;3510;43.200;27.920;2022-12-18T14:42:21;8.40;;;7.60;;
6941;SDS011;3510;43.200;27.920;2022-12-18T14:47:54;9.73;;;8.60;;
6941;SDS011;3510;43.200;27.920;2022-12-18T14:50:21;8.80;;;7.90;;
6941;SDS011;3510;43.200;27.920;2022-12-18T14:52:48;10.05;;;7.43;;
6941;SDS011;3510;43.200;27.920;2022-12-18T14:55:16;7.88;;;7.07;;
6941;SDS011;3510;43.200;27.920;2022-12-18T14:57:44;8.15;;;7.43;;
6941;SDS011;3510;43.200;27.920;2022-12-18T15:00:15;9.43;;;7.30;;
6941;SDS011;3510;43.200;27.920;2022-12-18T15:02:44;8.18;;;7.30;;
6941;SDS011;3510;43.200;27.920;2022-12-18T15:05:19;10.73;;;7.82;;
6941;SDS011;3510;43.200;27.920;2022-12-18T15:07:48;9.55;;;7.50;;
6941;SDS011;3510;43.200;27.920;2022-12-18T15:10:16;10.00;;;8.13;;
6941;SDS011;3510;43.200;27.920;2022-12-18T15:12:45;10.70;;;7.50;;
6941;SDS011;3510;43.200;27.920;2022-12-18T15:18:11;8.20;;;7.38;;
6941;SDS011;3510;43.200;27.920;2022-12-18T15:20:44;8.93;;;7.93;;
6941;SDS011;3510;43.200;27.920;2022-12-18T15:23:17;8.82;;;8.02;;
6941;SDS011;3510;43.200;27.920;2022-12-18T15:25:46;8.75;;;7.88;;
6941;SDS011;3510;43.200;27.920;2022-12-18T15:28:18;11.95;;;8.43;;
6941;SDS011;3510;43.200;27.920;2022-12-18T15:30:58;8.83;;;7.83;;